createdAt,value
2022-10-18T00:00:02.410Z,99709.81
2022-10-18T00:02:31.349Z,99713.22
2022-10-18T00:04:57.958Z,99708.91
2022-10-18T00:07:24.646Z,99711.81
2022-10-18T00:09:51.206Z,99715.75
2022-10-18T00:12:17.804Z,99709.78
2022-10-18T00:14:44.345Z,99714.84
2022-10-18T00:17:11.008Z,99702.75
2022-10-18T00:19:37.556Z,99697.75
2022-10-18T00:22:04.281Z,99693.63
2022-10-18T00:24:30.879Z,99704.06
2022-10-18T00:26:57.505Z,99702.13
2022-10-18T00:29:24.142Z,99686.75
2022-10-18T00:31:51.297Z,99697.75
2022-10-18T00:34:17.901Z,99693.47
2022-10-18T00:36:44.892Z,99686.69
2022-10-18T00:39:19.806Z,99689.34
2022-10-18T00:41:47.568Z,99702.38
2022-10-18T00:44:14.132Z,99688.63
2022-10-18T00:46:43.525Z,99693.78
2022-10-18T00:49:17.258Z,99689.53
2022-10-18T00:51:47.067Z,99690.28
2022-10-18T00:54:16.168Z,99686.28
2022-10-18T00:56:44.844Z,99686.19
2022-10-18T00:59:14.577Z,99689.34
2022-10-18T01:01:41.257Z,99679.84
2022-10-18T01:04:08.180Z,99681.25
2022-10-18T01:06:47.965Z,99670.84
2022-10-18T01:09:31.966Z,99676.59
2022-10-18T01:12:24.522Z,99673.13
2022-10-18T01:15:12.485Z,99671.53
2022-10-18T01:17:48.134Z,99663.25
2022-10-18T01:20:33.166Z,99668.09
2022-10-18T01:23:16.034Z,99663.25
2022-10-18T01:26:33.120Z,99664.84
2022-10-18T01:29:15.558Z,99657.09
2022-10-18T01:31:56.379Z,99655.41
2022-10-18T01:34:29.031Z,99657.44
2022-10-18T01:36:57.616Z,99659.34
2022-10-18T01:39:28.135Z,99653.91
2022-10-18T01:41:57.711Z,99652.50
2022-10-18T01:44:26.862Z,99650.97
2022-10-18T01:46:56.428Z,99649.75
2022-10-18T01:49:24.548Z,99654.59
2022-10-18T01:51:51.136Z,99653.56
2022-10-18T01:54:22.630Z,99655.50
2022-10-18T01:56:51.998Z,99650.41
2022-10-18T01:59:38.121Z,99646.50
2022-10-18T02:02:32.762Z,99655.25
2022-10-18T02:05:28.715Z,99639.22
2022-10-18T02:08:23.161Z,99644.00
2022-10-18T02:11:04.680Z,99644.31
2022-10-18T02:13:41.758Z,99637.47
2022-10-18T02:16:13.269Z,99627.97
2022-10-18T02:18:44.455Z,99625.31
2022-10-18T02:21:15.776Z,99623.63
2022-10-18T02:23:45.294Z,99623.38
2022-10-18T02:26:13.368Z,99614.06
2022-10-18T02:28:40.770Z,99621.38
2022-10-18T02:31:30.828Z,99622.38
2022-10-18T02:34:16.694Z,99622.53
2022-10-18T02:36:48.103Z,99620.88
2022-10-18T02:39:26.229Z,99607.38
2022-10-18T02:41:54.634Z,99598.94
2022-10-18T02:44:21.387Z,99598.44
2022-10-18T02:46:48.467Z,99590.94
2022-10-18T02:49:15.139Z,99593.69
2022-10-18T02:51:41.822Z,99589.38
2022-10-18T02:54:08.572Z,99599.84
2022-10-18T02:56:35.878Z,99593.78
2022-10-18T02:59:03.630Z,99601.09
2022-10-18T03:01:30.325Z,99601.28
2022-10-18T03:03:57.487Z,99606.88
2022-10-18T03:06:24.173Z,99609.03
2022-10-18T03:08:50.756Z,99604.75
2022-10-18T03:11:17.424Z,99603.50
2022-10-18T03:13:43.988Z,99610.09
2022-10-18T03:16:10.681Z,99609.88
2022-10-18T03:18:37.271Z,99605.88
2022-10-18T03:21:07.915Z,99611.25
2022-10-18T03:23:34.851Z,99608.69
2022-10-18T03:26:01.564Z,99603.44
2022-10-18T03:28:28.539Z,99607.50
2022-10-18T03:31:01.026Z,99606.81
2022-10-18T03:33:28.096Z,99618.84
2022-10-18T03:35:54.643Z,99612.16
2022-10-18T03:38:21.310Z,99611.16
2022-10-18T03:40:47.917Z,99620.97
2022-10-18T03:43:14.706Z,99616.41
2022-10-18T03:45:41.394Z,99611.50
2022-10-18T03:48:08.104Z,99609.00
2022-10-18T03:50:34.717Z,99603.16
2022-10-18T03:53:01.371Z,99618.19
2022-10-18T03:55:28.038Z,99611.16
2022-10-18T03:57:54.686Z,99613.00
2022-10-18T04:00:21.325Z,99610.19
2022-10-18T04:02:51.875Z,99616.16
2022-10-18T04:05:23.931Z,99609.56
2022-10-18T04:07:50.783Z,99607.69
2022-10-18T04:10:18.644Z,99606.00
2022-10-18T04:12:45.369Z,99604.75
2022-10-18T04:15:12.021Z,99606.34
2022-10-18T04:17:38.822Z,99605.41
2022-10-18T04:20:06.052Z,99611.59
2022-10-18T04:22:32.683Z,99610.81
2022-10-18T04:24:59.296Z,99613.56
2022-10-18T04:27:25.824Z,99602.41
2022-10-18T04:29:52.488Z,99604.66
2022-10-18T04:32:19.013Z,99606.34
2022-10-18T04:34:45.625Z,99605.56
2022-10-18T04:37:12.296Z,99602.31
2022-10-18T04:39:38.986Z,99605.00
2022-10-18T04:42:05.572Z,99598.88
2022-10-18T04:44:32.262Z,99604.13
2022-10-18T04:46:58.805Z,99597.47
2022-10-18T04:49:25.556Z,99605.28
2022-10-18T04:51:52.140Z,99609.84
2022-10-18T04:54:18.776Z,99607.72
2022-10-18T04:56:45.301Z,99615.56
2022-10-18T04:59:12.022Z,99615.56
2022-10-18T05:01:38.598Z,99607.56
2022-10-18T05:04:05.376Z,99602.22
2022-10-18T05:06:31.998Z,99609.75
2022-10-18T05:08:58.608Z,99611.66
2022-10-18T05:11:25.154Z,99609.94
2022-10-18T05:13:52.430Z,99604.47
2022-10-18T05:16:19.180Z,99606.53
2022-10-18T05:18:45.903Z,99601.97
2022-10-18T05:21:12.612Z,99606.97
2022-10-18T05:23:39.735Z,99600.38
2022-10-18T05:26:07.214Z,99599.06
2022-10-18T05:28:39.686Z,99599.00
2022-10-18T05:31:09.782Z,99606.22
2022-10-18T05:33:36.743Z,99599.44
2022-10-18T05:36:04.100Z,99603.78
2022-10-18T05:38:31.130Z,99595.69
2022-10-18T05:40:59.145Z,99588.00
2022-10-18T05:43:29.288Z,99587.63
2022-10-18T05:45:55.994Z,99587.56
2022-10-18T05:48:22.673Z,99588.38
2022-10-18T05:50:49.400Z,99581.25
2022-10-18T05:53:35.756Z,99593.47
2022-10-18T05:56:03.659Z,99588.63
2022-10-18T05:58:30.344Z,99595.22
2022-10-18T06:01:01.552Z,99592.72
2022-10-18T06:03:30.583Z,99585.88
2022-10-18T06:06:09.192Z,99585.19
2022-10-18T06:08:36.752Z,99589.06
2022-10-18T06:11:14.709Z,99584.97
2022-10-18T06:13:42.854Z,99591.78
2022-10-18T06:16:10.958Z,99591.03
2022-10-18T06:18:38.372Z,99588.28
2022-10-18T06:21:05.636Z,99586.31
2022-10-18T06:23:32.464Z,99583.22
2022-10-18T06:26:05.107Z,99591.94
2022-10-18T06:28:34.235Z,99587.84
2022-10-18T06:31:01.558Z,99590.34
2022-10-18T06:33:30.305Z,99591.66
2022-10-18T06:36:02.150Z,99591.56
2022-10-18T06:38:29.836Z,99590.88
2022-10-18T06:40:58.093Z,99591.78
2022-10-18T06:43:25.168Z,99597.41
2022-10-18T06:45:52.331Z,99606.75
2022-10-18T06:51:10.615Z,99608.34
2022-10-18T06:53:44.177Z,99601.25
2022-10-18T06:56:15.606Z,99602.00
2022-10-18T06:58:42.373Z,99605.44
2022-10-18T07:01:12.293Z,99605.13
2022-10-18T07:03:39.332Z,99605.47
2022-10-18T07:06:07.533Z,99605.91
2022-10-18T07:08:34.824Z,99601.53
2022-10-18T07:11:01.698Z,99619.59
2022-10-18T07:13:33.358Z,99617.50
2022-10-18T07:16:10.658Z,99616.53
2022-10-18T07:18:42.135Z,99617.13
2022-10-18T07:21:11.547Z,99612.03
2022-10-18T07:23:40.498Z,99613.63
2022-10-18T07:26:27.538Z,99613.38
2022-10-18T07:29:05.233Z,99611.69
2022-10-18T07:31:32.004Z,99618.88
2022-10-18T07:33:58.979Z,99621.38
2022-10-18T07:36:25.997Z,99618.53
2022-10-18T07:38:53.402Z,99614.97
2022-10-18T07:41:20.770Z,99625.22
2022-10-18T07:43:50.767Z,99619.38
2022-10-18T07:46:18.360Z,99617.38
2022-10-18T07:48:45.042Z,99614.88
2022-10-18T07:51:12.606Z,99606.53
2022-10-18T07:53:39.407Z,99616.28
2022-10-18T07:56:11.509Z,99615.22
2022-10-18T07:58:38.254Z,99612.28
2022-10-18T08:01:06.989Z,99617.22
2022-10-18T08:03:34.488Z,99607.53
2022-10-18T08:06:01.123Z,99598.59
2022-10-18T08:08:28.918Z,99603.50
2022-10-18T08:10:55.886Z,99591.66
2022-10-18T08:13:22.625Z,99595.00
2022-10-18T08:15:49.587Z,99586.41
2022-10-18T08:18:18.640Z,99587.06
2022-10-18T08:20:46.376Z,99584.19
2022-10-18T08:23:13.264Z,99583.97
2022-10-18T08:25:40.287Z,99575.94
2022-10-18T08:28:07.600Z,99572.34
2022-10-18T08:30:35.871Z,99566.88
2022-10-18T08:33:03.690Z,99576.72
2022-10-18T08:35:31.675Z,99571.31
2022-10-18T08:37:59.437Z,99571.84
2022-10-18T08:40:27.596Z,99563.94
2022-10-18T08:43:07.392Z,99559.97
2022-10-18T08:45:43.261Z,99560.34
2022-10-18T08:48:47.473Z,99557.19
2022-10-18T08:51:25.807Z,99559.78
2022-10-18T08:54:03.013Z,99551.38
2022-10-18T08:56:30.285Z,99546.34
2022-10-18T08:58:56.885Z,99547.84
2022-10-18T09:01:50.100Z,99551.81
2022-10-18T09:04:42.995Z,99546.09
2022-10-18T09:07:38.472Z,99540.63
2022-10-18T09:10:15.322Z,99546.19
2022-10-18T09:12:57.276Z,99541.63
2022-10-18T09:15:59.265Z,99539.41
2022-10-18T09:18:35.179Z,99534.13
2022-10-18T09:21:17.441Z,99536.19
2022-10-18T09:24:01.462Z,99535.91
2022-10-18T09:26:28.480Z,99525.63
2022-10-18T09:29:15.667Z,99531.09
2022-10-18T09:31:52.985Z,99518.75
2022-10-18T09:34:45.777Z,99514.22
2022-10-18T09:37:14.995Z,99525.31
2022-10-18T09:39:42.229Z,99522.97
2022-10-18T09:42:26.760Z,99524.00
2022-10-18T09:45:02.349Z,99517.28
2022-10-18T09:47:39.448Z,99516.50
2022-10-18T09:50:22.285Z,99507.56
2022-10-18T09:52:57.681Z,99507.22
2022-10-18T09:55:30.680Z,99508.59
2022-10-18T09:58:02.357Z,99499.66
2022-10-18T10:00:38.773Z,99502.69
2022-10-18T10:03:14.832Z,99506.66
2022-10-18T10:05:42.590Z,99501.34
2022-10-18T10:08:09.877Z,99502.38
2022-10-18T10:10:40.531Z,99507.66
2022-10-18T10:13:22.772Z,99495.72
2022-10-18T10:16:00.103Z,99498.75
2022-10-18T10:18:34.311Z,99498.53
2022-10-18T10:21:07.196Z,99482.03
2022-10-18T10:23:44.758Z,99480.16
2022-10-18T10:26:25.191Z,99482.25
2022-10-18T10:28:52.288Z,99484.31
2022-10-18T10:31:24.834Z,99482.63
2022-10-18T10:33:59.361Z,99475.50
2022-10-18T10:36:26.293Z,99475.81
2022-10-18T10:39:06.548Z,99471.31
2022-10-18T10:41:33.944Z,99475.28
2022-10-18T10:44:04.003Z,99462.69
2022-10-18T10:46:36.415Z,99459.22
2022-10-18T10:49:35.014Z,99452.44
2022-10-18T10:52:33.735Z,99454.81
2022-10-18T10:55:23.649Z,99447.31
2022-10-18T10:57:52.451Z,99443.03
2022-10-18T11:00:42.854Z,99433.84
2022-10-18T11:03:33.815Z,99431.75
2022-10-18T11:06:01.922Z,99423.34
2022-10-18T11:08:36.142Z,99423.22
2022-10-18T11:11:32.156Z,99408.25
2022-10-18T11:17:05.611Z,99411.47
2022-10-18T11:20:12.919Z,99400.97
2022-10-18T11:22:53.614Z,99397.81
2022-10-18T11:25:25.204Z,99387.28
2022-10-18T11:28:19.301Z,99387.59
2022-10-18T11:31:16.213Z,99376.28
2022-10-18T11:34:24.553Z,99378.75
2022-10-18T11:37:39.212Z,99368.56
2022-10-18T11:40:08.374Z,99363.63
2022-10-18T11:42:56.817Z,99362.78
2022-10-18T11:45:44.696Z,99353.31
2022-10-18T11:48:35.722Z,99346.44
2022-10-18T11:51:25.560Z,99345.75
2022-10-18T11:54:30.542Z,99350.59
2022-10-18T11:57:03.013Z,99337.00
2022-10-18T11:59:47.319Z,99332.63
2022-10-18T12:02:48.088Z,99327.66
2022-10-18T12:05:24.924Z,99324.19
2022-10-18T12:08:09.940Z,99316.03
2022-10-18T12:10:52.534Z,99303.22
2022-10-18T12:13:40.469Z,99309.34
2022-10-18T12:16:09.520Z,99294.41
2022-10-18T12:18:47.285Z,99297.38
2022-10-18T12:21:14.573Z,99285.78
2022-10-18T12:24:07.312Z,99293.94
2022-10-18T12:26:35.693Z,99288.59
2022-10-18T12:29:26.133Z,99291.41
2022-10-18T12:31:58.547Z,99287.44
2022-10-18T12:34:51.946Z,99277.25
2022-10-18T12:37:50.827Z,99271.91
2022-10-18T12:40:23.077Z,99267.59
2022-10-18T12:42:52.934Z,99259.06
2022-10-18T12:45:33.375Z,99261.22
2022-10-18T12:48:06.955Z,99258.38
2022-10-18T12:50:35.628Z,99247.47
2022-10-18T12:53:10.130Z,99252.88
2022-10-18T12:55:45.440Z,99234.34
2022-10-18T12:58:14.938Z,99240.97
2022-10-18T13:00:45.142Z,99229.59
2022-10-18T13:03:18.072Z,99228.69
2022-10-18T13:05:55.939Z,99223.53
2022-10-18T13:08:29.602Z,99217.09
2022-10-18T13:11:02.149Z,99215.44
2022-10-18T13:13:55.725Z,99214.34
2022-10-18T13:16:22.697Z,99217.00
2022-10-18T13:18:55.349Z,99214.44
2022-10-18T13:21:43.625Z,99210.16
2022-10-18T13:24:29.127Z,99211.16
2022-10-18T13:27:31.392Z,99207.16
2022-10-18T13:30:14.543Z,99200.59
2022-10-18T13:32:57.403Z,99208.16
2022-10-18T13:35:45.759Z,99201.16
2022-10-18T13:38:49.715Z,99199.38
2022-10-18T13:43:54.172Z,99196.50
2022-10-18T13:46:33.486Z,99192.00
2022-10-18T13:49:44.537Z,99187.88
2022-10-18T13:52:52.191Z,99189.91
2022-10-18T13:55:43.439Z,99188.41
2022-10-18T13:58:23.466Z,99184.25
2022-10-18T14:01:14.844Z,99184.41
2022-10-18T14:04:05.772Z,99183.72
2022-10-18T14:06:42.635Z,99178.59
2022-10-18T14:09:40.254Z,99179.28
2022-10-18T14:12:29.889Z,99181.34
2022-10-18T14:15:04.144Z,99180.97
2022-10-18T14:17:43.089Z,99187.16
2022-10-18T14:20:30.990Z,99183.16
2022-10-18T14:23:14.849Z,99177.91
2022-10-18T14:25:41.924Z,99178.06
2022-10-18T14:28:31.418Z,99175.16
2022-10-18T14:31:06.556Z,99176.13
2022-10-18T14:33:46.665Z,99173.34
2022-10-18T14:36:22.740Z,99174.88
2022-10-18T14:38:53.556Z,99169.94
2022-10-18T14:41:20.183Z,99169.78
2022-10-18T14:43:48.373Z,99168.13
2022-10-18T14:46:22.185Z,99166.50
2022-10-18T14:48:57.893Z,99164.31
2022-10-18T14:51:26.627Z,99159.91
2022-10-18T14:53:54.298Z,99156.19
2022-10-18T14:56:30.262Z,99157.16
2022-10-18T14:59:00.144Z,99151.34
2022-10-18T15:01:30.717Z,99159.47
2022-10-18T15:04:00.152Z,99156.03
2022-10-18T15:06:27.692Z,99153.44
2022-10-18T15:08:57.985Z,99154.66
2022-10-18T15:11:25.920Z,99150.25
2022-10-18T15:13:59.271Z,99159.47
2022-10-18T15:16:29.269Z,99147.78
2022-10-18T15:19:01.348Z,99144.22
2022-10-18T15:21:28.107Z,99146.56
2022-10-18T15:23:55.410Z,99145.19
2022-10-18T15:26:26.808Z,99145.09
2022-10-18T15:28:56.693Z,99144.50
2022-10-18T15:31:23.429Z,99155.50
2022-10-18T15:33:50.402Z,99144.88
2022-10-18T15:36:26.622Z,99145.16
2022-10-18T15:38:53.500Z,99148.41
2022-10-18T15:41:45.069Z,99149.34
2022-10-18T15:44:25.738Z,99146.78
2022-10-18T15:46:56.154Z,99146.75
2022-10-18T15:49:44.367Z,99150.78
2022-10-18T15:52:40.070Z,99145.66
2022-10-18T15:55:45.330Z,99143.91
2022-10-18T15:58:39.097Z,99149.69
2022-10-18T16:01:28.054Z,99147.22
2022-10-18T16:06:26.584Z,99151.22
2022-10-18T16:08:53.945Z,99148.75
2022-10-18T16:11:26.525Z,99152.28
2022-10-18T16:13:56.457Z,99148.19
2022-10-18T16:16:29.138Z,99147.75
2022-10-18T16:18:56.805Z,99149.19
2022-10-18T16:21:28.265Z,99156.38
2022-10-18T16:23:55.609Z,99151.94
2022-10-18T16:26:23.153Z,99151.59
2022-10-18T16:28:51.432Z,99151.47
2022-10-18T16:31:24.037Z,99156.22
2022-10-18T16:33:52.033Z,99160.25
2022-10-18T16:36:21.465Z,99160.13
2022-10-18T16:38:49.124Z,99155.50
2022-10-18T16:41:16.918Z,99158.34
2022-10-18T16:43:45.620Z,99166.78
2022-10-18T16:46:18.685Z,99170.06
2022-10-18T16:48:46.720Z,99171.63
2022-10-18T16:51:13.528Z,99169.16
2022-10-18T16:53:41.184Z,99176.00
2022-10-18T16:56:14.396Z,99181.31
2022-10-18T16:58:41.661Z,99172.94
2022-10-18T17:01:12.361Z,99180.88
2022-10-18T17:03:39.571Z,99182.28
2022-10-18T17:06:06.781Z,99185.06
2022-10-18T17:08:33.953Z,99194.91
2022-10-18T17:11:01.808Z,99196.69
2022-10-18T17:13:28.719Z,99195.72
2022-10-18T17:15:55.566Z,99205.56
2022-10-18T17:18:26.509Z,99203.88
2022-10-18T17:20:53.754Z,99201.97
2022-10-18T17:23:20.560Z,99205.41
2022-10-18T17:25:59.097Z,99203.88
2022-10-18T17:28:34.235Z,99205.16
2022-10-18T17:31:01.029Z,99215.22
2022-10-18T17:33:27.954Z,99211.56
2022-10-18T17:35:54.776Z,99210.38
2022-10-18T17:38:21.502Z,99209.91
2022-10-18T17:40:48.187Z,99213.59
2022-10-18T17:43:15.047Z,99209.66
2022-10-18T17:45:49.268Z,99211.66
2022-10-18T17:48:17.361Z,99212.84
2022-10-18T17:50:43.910Z,99204.34
2022-10-18T17:53:11.937Z,99211.28
2022-10-18T17:55:39.305Z,99203.84
2022-10-18T17:58:06.200Z,99205.72
2022-10-18T18:00:32.802Z,99204.16
2022-10-18T18:03:01.075Z,99207.69
2022-10-18T18:05:32.431Z,99210.78
2022-10-18T18:08:02.961Z,99211.13
2022-10-18T18:10:35.075Z,99213.72
2022-10-18T18:13:02.788Z,99212.31
2022-10-18T18:15:30.076Z,99215.00
2022-10-18T18:17:58.233Z,99222.25
2022-10-18T18:20:25.846Z,99218.09
2022-10-18T18:22:52.976Z,99219.59
2022-10-18T18:25:20.092Z,99216.06
2022-10-18T18:27:46.826Z,99217.72
2022-10-18T18:30:14.379Z,99220.66
2022-10-18T18:32:41.046Z,99224.06
2022-10-18T18:35:07.826Z,99222.97
2022-10-18T18:37:34.782Z,99228.41
2022-10-18T18:40:01.487Z,99232.16
2022-10-18T18:42:28.209Z,99224.25
2022-10-18T18:44:54.904Z,99221.66
2022-10-18T18:47:23.418Z,99223.94
2022-10-18T18:49:51.543Z,99225.09
2022-10-18T18:52:18.215Z,99230.19
2022-10-18T18:54:45.038Z,99227.09
2022-10-18T18:57:12.054Z,99223.88
2022-10-18T18:59:38.690Z,99224.78
2022-10-18T19:02:05.375Z,99235.19
2022-10-18T19:04:33.326Z,99229.47
2022-10-18T19:07:00.134Z,99235.59
2022-10-18T19:09:27.508Z,99229.31
2022-10-18T19:11:56.296Z,99227.75
2022-10-18T19:14:25.897Z,99232.13
2022-10-18T19:16:55.022Z,99234.72
2022-10-18T19:19:24.071Z,99230.09
2022-10-18T19:21:56.150Z,99233.97
2022-10-18T19:24:25.014Z,99231.69
2022-10-18T19:26:54.903Z,99232.91
2022-10-18T19:29:23.085Z,99226.66
2022-10-18T19:31:51.482Z,99246.72
2022-10-18T19:34:20.962Z,99239.97
2022-10-18T19:36:48.674Z,99234.06
2022-10-18T19:39:18.698Z,99248.31
2022-10-18T19:41:46.933Z,99248.31
2022-10-18T19:44:13.637Z,99248.31
2022-10-18T19:46:40.280Z,99253.19
2022-10-18T19:49:06.966Z,99248.69
2022-10-18T19:51:33.665Z,99240.78
2022-10-18T19:54:00.475Z,99235.00
2022-10-18T19:56:27.992Z,99243.13
2022-10-18T19:58:57.131Z,99238.56
2022-10-18T20:01:25.438Z,99248.50
2022-10-18T20:03:52.149Z,99244.38
2022-10-18T20:06:19.425Z,99234.31
2022-10-18T20:08:46.644Z,99242.72
2022-10-18T20:11:19.354Z,99247.91
2022-10-18T20:13:46.423Z,99242.31
2022-10-18T20:16:15.836Z,99243.56
2022-10-18T20:18:45.735Z,99243.56
2022-10-18T20:21:17.389Z,99245.66
2022-10-18T20:23:44.560Z,99243.16
2022-10-18T20:26:18.119Z,99251.06
2022-10-18T20:28:48.653Z,99253.66
2022-10-18T20:31:18.473Z,99251.69
2022-10-18T20:33:46.509Z,99254.50
2022-10-18T20:36:16.519Z,99255.44
2022-10-18T20:38:45.852Z,99259.59
2022-10-18T20:41:18.681Z,99254.72
2022-10-18T20:43:57.532Z,99252.00
2022-10-18T20:46:25.210Z,99253.06
2022-10-18T20:48:53.451Z,99246.19
2022-10-18T20:51:20.630Z,99252.53
2022-10-18T20:53:47.306Z,99256.47
2022-10-18T20:56:22.062Z,99260.22
2022-10-18T20:58:51.790Z,99253.38
2022-10-18T21:01:38.614Z,99255.25
2022-10-18T21:04:07.636Z,99262.28
2022-10-18T21:06:42.592Z,99261.78
2022-10-18T21:09:15.558Z,99253.91
2022-10-18T21:11:44.932Z,99254.50
2022-10-18T21:14:17.472Z,99244.66
2022-10-18T21:16:44.892Z,99245.69
2022-10-18T21:19:14.667Z,99243.41
2022-10-18T21:21:43.933Z,99244.44
2022-10-18T21:24:10.894Z,99243.59
2022-10-18T21:26:37.611Z,99252.22
2022-10-18T21:29:05.519Z,99251.09
2022-10-18T21:31:35.065Z,99243.50
2022-10-18T21:34:04.506Z,99233.34
2022-10-18T21:36:33.799Z,99241.53
2022-10-18T21:39:01.921Z,99232.91
2022-10-18T21:41:28.508Z,99234.69
2022-10-18T21:43:55.439Z,99242.25
2022-10-18T21:46:23.785Z,99234.28
2022-10-18T21:48:52.851Z,99239.66
2022-10-18T21:51:21.744Z,99229.50
2022-10-18T21:53:51.179Z,99231.91
2022-10-18T21:56:23.374Z,99218.28
2022-10-18T21:58:50.515Z,99225.03
2022-10-18T22:01:20.241Z,99224.31
2022-10-18T22:03:49.503Z,99229.28
2022-10-18T22:06:16.858Z,99224.94
2022-10-18T22:08:48.166Z,99225.75
2022-10-18T22:11:15.815Z,99215.09
2022-10-18T22:13:43.098Z,99225.03
2022-10-18T22:16:13.347Z,99224.09
2022-10-18T22:18:40.761Z,99222.75
2022-10-18T22:21:10.384Z,99227.94
2022-10-18T22:23:43.193Z,99222.44
2022-10-18T22:26:20.392Z,99223.78
2022-10-18T22:28:47.725Z,99221.41
2022-10-18T22:31:20.737Z,99218.81
2022-10-18T22:33:53.358Z,99210.94
2022-10-18T22:36:20.005Z,99211.22
2022-10-18T22:38:46.563Z,99213.19
2022-10-18T22:41:13.248Z,99207.91
2022-10-18T22:43:40.014Z,99200.03
2022-10-18T22:46:09.124Z,99208.03
2022-10-18T22:48:36.405Z,99209.97
2022-10-18T22:51:03.917Z,99189.44
2022-10-18T22:53:31.501Z,99201.06
2022-10-18T22:55:58.122Z,99206.56
2022-10-18T22:58:25.057Z,99203.31
2022-10-18T23:00:51.771Z,99211.84
2022-10-18T23:03:18.967Z,99190.78
2022-10-18T23:05:46.889Z,99192.97
2022-10-18T23:08:14.348Z,99195.56
2022-10-18T23:10:42.848Z,99196.88
2022-10-18T23:13:10.728Z,99188.72
2022-10-18T23:15:39.077Z,99192.13
2022-10-18T23:18:06.337Z,99190.06
2022-10-18T23:20:33.185Z,99194.00
2022-10-18T23:22:59.810Z,99187.34
2022-10-18T23:25:27.810Z,99184.94
2022-10-18T23:27:54.381Z,99182.69
2022-10-18T23:30:21.081Z,99182.91
2022-10-18T23:32:47.890Z,99181.53
2022-10-18T23:35:14.750Z,99179.25
2022-10-18T23:37:41.315Z,99187.75
2022-10-18T23:40:08.958Z,99185.34
2022-10-18T23:42:35.491Z,99186.72
2022-10-18T23:45:02.117Z,99187.75
2022-10-18T23:47:28.736Z,99182.06
2022-10-18T23:49:57.210Z,99183.91
2022-10-18T23:52:24.733Z,99180.59
2022-10-18T23:54:51.432Z,99183.44
2022-10-18T23:57:18.033Z,99176.91
2022-10-18T23:59:44.650Z,99185.31
